Terminal Aerodrome Forecast
Issued by NWS Shreveport, LA

Home | Current Version | Previous Version | Text Only | Print | Product List | Glossary On
Versions: 1 2 3 4 5 6 7 8 9 10 11 12 13 14 15 16 17 18 19
000
FTUS44 KSHV 221134
TAFTYR
TAF
KTYR 221134Z 2212/2312 23010KT P6SM SKC
     FM221500 28015G25KT P6SM SCT100 SCT250
     FM221800 30020G35KT P6SM SCT030 SCT250
     FM230000 31015G25KT P6SM SCT035
     FM230500 32008KT P6SM SKC=

USA.gov is the U.S. government's official web portal to all federal, state and local government web resources and services.